createdAt,value
2022-07-25T00:00:56.946Z,21.10
2022-07-25T00:03:58.054Z,21.00
2022-07-25T00:06:58.957Z,20.90
2022-07-25T00:09:59.974Z,20.80
2022-07-25T00:13:00.962Z,20.80
2022-07-25T00:16:02.319Z,20.70
2022-07-25T00:19:03.876Z,20.70
2022-07-25T00:22:05.027Z,20.60
2022-07-25T00:25:06.548Z,20.60
2022-07-25T00:28:07.614Z,20.60
2022-07-25T00:31:09.001Z,20.60
2022-07-25T00:34:10.637Z,20.50
2022-07-25T00:37:12.099Z,20.50
2022-07-25T00:40:13.916Z,20.40
2022-07-25T00:43:14.786Z,20.30
2022-07-25T00:46:19.049Z,20.20
2022-07-25T00:49:20.913Z,20.20
2022-07-25T00:52:24.645Z,20.20
2022-07-25T00:55:27.022Z,20.30
2022-07-25T00:58:28.067Z,20.20
2022-07-25T01:01:29.295Z,20.10
2022-07-25T01:04:30.139Z,20.00
2022-07-25T01:07:31.688Z,20.00
2022-07-25T01:10:34.564Z,20.00
2022-07-25T01:13:35.848Z,19.90
2022-07-25T01:16:37.153Z,19.80
2022-07-25T01:19:38.020Z,19.70
2022-07-25T01:22:38.721Z,19.60
2022-07-25T01:25:39.977Z,19.50
2022-07-25T01:28:41.467Z,19.40
2022-07-25T01:31:42.301Z,19.40
2022-07-25T01:34:43.197Z,19.40
2022-07-25T01:37:45.943Z,19.30
2022-07-25T01:40:47.193Z,19.30
2022-07-25T01:43:48.072Z,19.30
2022-07-25T01:46:49.489Z,19.10
2022-07-25T01:49:51.193Z,19.00
2022-07-25T01:52:52.308Z,19.00
2022-07-25T01:55:53.761Z,19.00
2022-07-25T01:58:55.886Z,19.00
2022-07-25T02:01:57.091Z,19.10
2022-07-25T02:04:58.173Z,19.10
2022-07-25T02:07:59.362Z,19.20
2022-07-25T02:11:00.988Z,19.20
2022-07-25T02:14:03.803Z,19.20
2022-07-25T02:17:05.152Z,19.10
2022-07-25T02:20:07.145Z,19.00
2022-07-25T02:23:08.749Z,18.90
2022-07-25T02:26:09.857Z,19.00
2022-07-25T02:29:10.814Z,19.00
2022-07-25T02:32:11.793Z,18.90
2022-07-25T02:35:13.558Z,18.80
2022-07-25T02:38:19.837Z,18.80
2022-07-25T02:41:20.636Z,18.80
2022-07-25T02:44:21.789Z,18.80
2022-07-25T02:47:23.363Z,18.90
2022-07-25T02:50:25.044Z,18.90
2022-07-25T02:53:47.198Z,18.80
2022-07-25T02:56:47.036Z,18.80
2022-07-25T02:59:47.967Z,18.90
2022-07-25T03:02:49.830Z,18.90
2022-07-25T03:05:51.332Z,18.90
2022-07-25T03:08:52.133Z,18.90
2022-07-25T03:11:54.498Z,18.90
2022-07-25T03:14:56.043Z,18.90
2022-07-25T03:17:57.288Z,18.80
2022-07-25T03:20:58.202Z,18.80
2022-07-25T03:23:59.051Z,18.70
2022-07-25T03:27:00.328Z,18.70
2022-07-25T03:30:01.520Z,18.60
2022-07-25T03:33:02.227Z,18.60
2022-07-25T03:36:04.286Z,18.50
2022-07-25T03:39:05.802Z,18.40
2022-07-25T03:42:06.913Z,18.20
2022-07-25T03:45:08.693Z,18.20
2022-07-25T03:48:09.834Z,18.20
2022-07-25T03:51:11.225Z,18.20
2022-07-25T03:54:14.714Z,18.10
2022-07-25T03:57:15.301Z,18.20
2022-07-25T04:00:16.582Z,18.30
2022-07-25T04:03:17.663Z,18.30
2022-07-25T04:06:18.930Z,18.40
2022-07-25T04:09:19.854Z,18.40
2022-07-25T04:12:20.790Z,18.40
2022-07-25T04:15:21.773Z,18.30
2022-07-25T04:18:22.475Z,18.30
2022-07-25T04:21:29.801Z,18.30
2022-07-25T04:24:31.527Z,18.30
2022-07-25T04:27:32.477Z,18.30
2022-07-25T04:30:33.719Z,18.40
2022-07-25T04:33:41.302Z,18.50
2022-07-25T04:36:42.566Z,18.70
2022-07-25T04:39:43.441Z,18.90
2022-07-25T04:42:44.329Z,19.00
2022-07-25T04:45:45.206Z,19.10
2022-07-25T04:48:46.468Z,19.20
2022-07-25T04:51:49.333Z,19.30
2022-07-25T04:54:50.225Z,19.40
2022-07-25T04:57:51.543Z,19.50
2022-07-25T05:00:52.552Z,19.50
2022-07-25T05:03:53.741Z,19.60
2022-07-25T05:06:54.948Z,19.70
2022-07-25T05:09:56.367Z,19.70
2022-07-25T05:12:57.601Z,19.70
2022-07-25T05:15:58.531Z,19.80
2022-07-25T05:18:59.433Z,19.90
2022-07-25T05:22:00.601Z,19.90
2022-07-25T05:25:04.784Z,19.90
2022-07-25T05:28:05.761Z,20.10
2022-07-25T05:31:06.820Z,20.10
2022-07-25T05:34:09.295Z,20.10
2022-07-25T05:37:11.169Z,20.30
2022-07-25T05:40:13.323Z,20.40
2022-07-25T05:43:14.493Z,20.50
2022-07-25T05:46:19.343Z,20.50
2022-07-25T05:49:20.949Z,20.60
2022-07-25T05:52:22.888Z,20.70
2022-07-25T05:55:24.111Z,20.80
2022-07-25T05:58:29.621Z,20.90
2022-07-25T06:01:30.876Z,21.10
2022-07-25T06:04:32.078Z,21.20
2022-07-25T06:07:33.428Z,21.40
2022-07-25T06:10:34.672Z,21.40
2022-07-25T06:13:38.461Z,21.60
2022-07-25T06:16:39.429Z,21.70
2022-07-25T06:19:40.640Z,21.90
2022-07-25T06:22:41.510Z,22.10
2022-07-25T06:25:42.480Z,22.10
2022-07-25T06:28:43.352Z,22.10
2022-07-25T06:31:46.378Z,22.10
2022-07-25T06:34:48.168Z,22.30
2022-07-25T06:37:49.566Z,22.50
2022-07-25T06:40:50.807Z,22.50
2022-07-25T06:43:52.023Z,22.60
2022-07-25T06:46:52.779Z,22.70
2022-07-25T06:49:53.913Z,22.70
2022-07-25T06:52:55.247Z,22.80
2022-07-25T06:55:56.067Z,23.00
2022-07-25T06:58:57.179Z,23.20
2022-07-25T07:01:58.316Z,23.40
2022-07-25T07:04:58.951Z,23.60
2022-07-25T07:08:01.351Z,23.60
2022-07-25T07:11:02.224Z,23.70
2022-07-25T07:14:05.075Z,23.80
2022-07-25T07:17:06.322Z,23.80
2022-07-25T07:20:08.754Z,24.10
2022-07-25T07:23:10.454Z,24.30
2022-07-25T07:26:11.791Z,24.50
2022-07-25T07:29:12.677Z,24.70
2022-07-25T07:32:13.982Z,24.70
2022-07-25T07:35:16.763Z,25.10
2022-07-25T07:38:18.449Z,25.30
2022-07-25T07:41:19.680Z,25.20
2022-07-25T07:44:20.705Z,25.40
2022-07-25T07:47:21.898Z,25.60
2022-07-25T07:50:27.234Z,25.70
2022-07-25T07:53:47.193Z,25.70
2022-07-25T07:56:48.481Z,25.90
2022-07-25T07:59:49.247Z,26.10
2022-07-25T08:02:53.289Z,26.50
2022-07-25T08:05:54.589Z,26.80
2022-07-25T08:08:56.026Z,27.00
2022-07-25T08:11:57.176Z,27.20
2022-07-25T08:14:58.485Z,27.50
2022-07-25T08:18:00.551Z,27.60
2022-07-25T08:21:04.290Z,27.60
2022-07-25T08:24:06.938Z,27.30
2022-07-25T08:27:08.145Z,27.50
2022-07-25T08:30:10.956Z,27.90
2022-07-25T08:33:16.455Z,28.30
2022-07-25T08:36:17.717Z,28.60
2022-07-25T08:39:18.573Z,28.50
2022-07-25T08:42:21.260Z,28.50
2022-07-25T08:45:23.422Z,28.80
2022-07-25T08:48:27.052Z,28.80
2022-07-25T08:51:28.933Z,28.70
2022-07-25T08:54:31.889Z,29.10
2022-07-25T08:57:34.237Z,29.50
2022-07-25T09:00:35.151Z,29.80
2022-07-25T09:03:36.554Z,29.80
2022-07-25T09:06:37.789Z,30.00
2022-07-25T09:09:39.765Z,30.10
2022-07-25T09:12:42.077Z,30.30
2022-07-25T09:15:52.752Z,30.30
2022-07-25T09:18:53.901Z,30.30
2022-07-25T09:22:10.263Z,30.10
2022-07-25T09:25:22.677Z,30.10
2022-07-25T09:28:23.912Z,30.40
2022-07-25T09:31:35.090Z,30.80
2022-07-25T09:34:39.391Z,30.90
2022-07-25T09:37:40.456Z,31.00
2022-07-25T09:40:42.755Z,31.10
2022-07-25T09:43:44.793Z,31.50
2022-07-25T09:46:46.062Z,31.00
2022-07-25T09:49:47.828Z,31.30
2022-07-25T09:52:52.870Z,31.30
2022-07-25T09:55:55.326Z,31.40
2022-07-25T09:58:56.651Z,31.20
2022-07-25T10:02:25.990Z,31.40
2022-07-25T10:05:45.415Z,31.60
2022-07-25T10:08:49.136Z,32.10
2022-07-25T10:12:11.719Z,32.40
2022-07-25T10:15:14.463Z,32.50
2022-07-25T10:18:19.814Z,32.50
2022-07-25T10:21:27.043Z,32.30
2022-07-25T10:24:39.099Z,32.70
2022-07-25T10:28:00.132Z,32.90
2022-07-25T10:31:01.166Z,32.90
2022-07-25T10:34:07.504Z,32.40
2022-07-25T10:37:11.544Z,32.50
2022-07-25T10:40:24.568Z,32.80
2022-07-25T10:43:28.210Z,33.60
2022-07-25T10:46:31.167Z,33.80
2022-07-25T10:49:50.127Z,33.80
2022-07-25T10:53:01.374Z,33.70
2022-07-25T10:56:23.386Z,33.70
2022-07-25T10:59:39.531Z,33.60
2022-07-25T11:02:41.512Z,34.10
2022-07-25T11:05:49.276Z,33.70
2022-07-25T11:08:50.124Z,33.80
2022-07-25T11:11:55.345Z,34.40
2022-07-25T11:15:08.323Z,34.50
2022-07-25T11:18:09.481Z,34.80
2022-07-25T11:21:10.814Z,34.90
2022-07-25T11:24:11.814Z,34.00
2022-07-25T11:27:25.386Z,34.20
2022-07-25T11:30:29.818Z,34.80
2022-07-25T11:33:31.413Z,34.60
2022-07-25T11:36:32.512Z,34.20
2022-07-25T11:39:37.773Z,34.40
2022-07-25T11:42:52.260Z,35.00
2022-07-25T11:46:08.971Z,35.70
2022-07-25T11:49:10.915Z,35.20
2022-07-25T11:52:22.346Z,35.00
2022-07-25T11:55:30.623Z,34.70
2022-07-25T11:58:31.966Z,35.00
2022-07-25T12:01:45.444Z,35.00
2022-07-25T12:04:55.778Z,34.70
2022-07-25T12:07:56.759Z,35.20
2022-07-25T12:10:57.748Z,35.60
2022-07-25T12:14:05.126Z,35.00
2022-07-25T12:17:06.236Z,35.10
2022-07-25T12:20:21.519Z,35.40
2022-07-25T12:23:22.655Z,35.20
2022-07-25T12:26:23.750Z,35.10
2022-07-25T12:29:24.732Z,34.90
2022-07-25T12:32:25.614Z,35.70
2022-07-25T12:35:27.211Z,35.50
2022-07-25T12:38:29.115Z,35.30
2022-07-25T12:41:30.139Z,35.30
2022-07-25T12:44:31.473Z,35.70
2022-07-25T12:47:32.805Z,35.60
2022-07-25T12:50:33.843Z,35.80
2022-07-25T12:53:37.814Z,35.80
2022-07-25T12:56:41.686Z,35.30
2022-07-25T12:59:43.426Z,35.50
2022-07-25T13:02:44.646Z,36.40
2022-07-25T13:05:45.660Z,36.30
2022-07-25T13:08:47.263Z,35.40
2022-07-25T13:11:49.040Z,36.00
2022-07-25T13:14:50.610Z,36.50
2022-07-25T13:17:51.731Z,36.60
2022-07-25T13:20:53.042Z,36.40
2022-07-25T13:23:54.114Z,36.20
2022-07-25T13:26:55.251Z,36.30
2022-07-25T13:29:56.316Z,36.20
2022-07-25T13:32:57.772Z,36.40
2022-07-25T13:35:58.706Z,36.60
2022-07-25T13:38:59.739Z,37.10
2022-07-25T13:42:01.126Z,36.40
2022-07-25T13:45:02.458Z,36.60
2022-07-25T13:48:28.579Z,37.10
2022-07-25T13:51:26.847Z,38.20
2022-07-25T13:54:27.995Z,38.40
2022-07-25T13:57:28.793Z,37.70
2022-07-25T14:00:30.175Z,38.40
2022-07-25T14:03:30.880Z,37.80
2022-07-25T14:06:32.026Z,36.90
2022-07-25T14:09:32.854Z,36.30
2022-07-25T14:12:34.596Z,36.20
2022-07-25T14:15:36.024Z,37.50
2022-07-25T14:18:37.171Z,37.80
2022-07-25T14:21:38.381Z,36.80
2022-07-25T14:24:39.313Z,37.00
2022-07-25T14:27:40.647Z,37.50
2022-07-25T14:30:41.713Z,37.50
2022-07-25T14:33:42.975Z,37.80
2022-07-25T14:36:44.917Z,37.00
2022-07-25T14:39:46.615Z,35.70
2022-07-25T14:42:47.485Z,35.40
2022-07-25T14:45:48.494Z,35.80
2022-07-25T14:48:50.037Z,34.90
2022-07-25T14:51:51.241Z,34.30
2022-07-25T14:54:52.261Z,34.20
2022-07-25T14:57:53.101Z,34.70
2022-07-25T15:00:54.474Z,35.10
2022-07-25T15:03:57.219Z,36.60
2022-07-25T15:06:58.478Z,37.90
2022-07-25T15:09:59.949Z,38.90
2022-07-25T15:13:29.241Z,40.10
2022-07-25T15:16:22.134Z,39.70
2022-07-25T15:19:23.262Z,37.80
2022-07-25T15:22:24.602Z,37.90
2022-07-25T15:26:00.000Z,37.20
2022-07-25T15:28:47.325Z,35.90
2022-07-25T15:31:49.420Z,35.40
2022-07-25T15:34:50.272Z,34.70
2022-07-25T15:37:51.162Z,34.20
2022-07-25T15:40:52.154Z,33.90
2022-07-25T15:43:53.503Z,33.40
2022-07-25T15:46:54.503Z,33.70
2022-07-25T15:49:55.933Z,33.80
2022-07-25T15:52:57.283Z,34.00
2022-07-25T15:55:58.243Z,33.80
2022-07-25T15:58:59.581Z,33.60
2022-07-25T16:02:00.900Z,33.40
2022-07-25T16:05:03.555Z,33.50
2022-07-25T16:08:05.569Z,33.60
2022-07-25T16:11:06.797Z,34.10
2022-07-25T16:14:09.145Z,35.20
2022-07-25T16:17:10.105Z,35.40
2022-07-25T16:20:11.974Z,34.90
2022-07-25T16:23:13.902Z,35.00
2022-07-25T16:26:15.296Z,35.10
2022-07-25T16:29:16.617Z,35.10
2022-07-25T16:32:18.971Z,35.20
2022-07-25T16:35:20.072Z,35.10
2022-07-25T16:38:22.388Z,34.90
2022-07-25T16:41:23.381Z,34.50
2022-07-25T16:44:24.652Z,34.20
2022-07-25T16:47:26.199Z,33.70
2022-07-25T16:50:27.154Z,33.10
2022-07-25T16:53:28.275Z,32.70
2022-07-25T16:56:29.706Z,32.50
2022-07-25T16:59:30.585Z,32.50
2022-07-25T17:02:32.414Z,32.50
2022-07-25T17:05:33.511Z,32.60
2022-07-25T17:08:35.813Z,32.30
2022-07-25T17:11:37.149Z,32.30
2022-07-25T17:14:38.126Z,32.00
2022-07-25T17:17:39.133Z,31.90
2022-07-25T17:20:40.678Z,31.60
2022-07-25T17:23:41.732Z,31.30
2022-07-25T17:26:43.076Z,31.10
2022-07-25T17:29:43.821Z,30.90
2022-07-25T17:32:45.165Z,30.80
2022-07-25T17:35:46.490Z,30.70
2022-07-25T17:38:47.417Z,30.60
2022-07-25T17:41:48.919Z,30.50
2022-07-25T17:44:52.058Z,30.20
2022-07-25T17:47:53.390Z,30.30
2022-07-25T17:50:54.442Z,30.50
2022-07-25T17:53:55.685Z,30.50
2022-07-25T17:56:57.643Z,30.50
2022-07-25T17:59:58.390Z,30.40
2022-07-25T18:02:59.889Z,30.20
2022-07-25T18:06:00.749Z,30.10
2022-07-25T18:09:01.963Z,30.00
2022-07-25T18:12:03.870Z,29.90
2022-07-25T18:15:06.761Z,29.90
2022-07-25T18:18:10.538Z,29.80
2022-07-25T18:21:13.008Z,29.70
2022-07-25T18:24:14.285Z,29.70
2022-07-25T18:27:15.104Z,29.60
2022-07-25T18:30:17.055Z,29.50
2022-07-25T18:33:19.309Z,29.50
2022-07-25T18:36:20.501Z,29.50
2022-07-25T18:39:22.816Z,29.40
2022-07-25T18:42:29.541Z,29.40
2022-07-25T18:45:31.361Z,29.40
2022-07-25T18:48:32.480Z,29.40
2022-07-25T18:51:33.413Z,29.60
2022-07-25T18:54:34.110Z,29.50
2022-07-25T18:57:35.296Z,29.40
2022-07-25T19:00:36.254Z,29.10
2022-07-25T19:03:37.774Z,29.00
2022-07-25T19:06:39.156Z,28.80
2022-07-25T19:09:40.215Z,28.70
2022-07-25T19:12:41.650Z,28.60
2022-07-25T19:15:42.550Z,28.50
2022-07-25T19:18:43.952Z,28.30
2022-07-25T19:21:46.072Z,28.10
2022-07-25T19:24:48.087Z,28.10
2022-07-25T19:27:49.173Z,28.10
2022-07-25T19:30:50.609Z,28.20
2022-07-25T19:33:51.792Z,28.20
2022-07-25T19:36:55.687Z,28.40
2022-07-25T19:39:56.870Z,28.40
2022-07-25T19:42:58.745Z,28.30
2022-07-25T19:46:00.083Z,28.10
2022-07-25T19:49:01.893Z,28.00
2022-07-25T19:52:03.441Z,27.90
2022-07-25T19:55:05.910Z,27.60
2022-07-25T19:58:08.683Z,27.50
2022-07-25T20:01:09.987Z,27.40
2022-07-25T20:04:11.415Z,27.30
2022-07-25T20:07:12.681Z,27.30
2022-07-25T20:10:13.463Z,27.20
2022-07-25T20:13:19.049Z,27.20
2022-07-25T20:16:20.452Z,27.10
2022-07-25T20:19:21.797Z,26.80
2022-07-25T20:22:23.165Z,26.80
2022-07-25T20:25:23.920Z,26.80
2022-07-25T20:28:24.859Z,26.70
2022-07-25T20:31:26.142Z,26.60
2022-07-25T20:34:27.088Z,26.50
2022-07-25T20:37:28.282Z,26.30
2022-07-25T20:40:30.024Z,26.20
2022-07-25T20:43:32.872Z,26.20
2022-07-25T20:46:36.080Z,26.10
2022-07-25T20:49:37.341Z,26.10
2022-07-25T20:52:39.167Z,25.90
2022-07-25T20:55:40.347Z,25.80
2022-07-25T20:58:41.294Z,25.80
2022-07-25T21:01:42.794Z,25.80
2022-07-25T21:04:44.994Z,25.80
2022-07-25T21:07:46.537Z,25.80
2022-07-25T21:10:47.353Z,25.80
2022-07-25T21:13:48.287Z,25.70
2022-07-25T21:16:49.593Z,25.60
2022-07-25T21:19:50.456Z,25.60
2022-07-25T21:22:51.398Z,25.60
2022-07-25T21:25:52.502Z,25.50
2022-07-25T21:28:53.884Z,25.50
2022-07-25T21:31:54.711Z,25.40
2022-07-25T21:34:55.878Z,25.40
2022-07-25T21:37:58.781Z,25.40
2022-07-25T21:40:59.914Z,25.30
2022-07-25T21:44:01.345Z,25.20
2022-07-25T21:47:02.475Z,25.10
2022-07-25T21:50:24.463Z,24.90
2022-07-25T21:53:26.370Z,24.90
2022-07-25T21:56:27.707Z,24.90
2022-07-25T21:59:28.943Z,25.00
2022-07-25T22:02:29.960Z,25.00
2022-07-25T22:05:31.514Z,25.10
2022-07-25T22:08:32.611Z,25.00
2022-07-25T22:11:42.947Z,24.90
2022-07-25T22:14:47.801Z,24.80
2022-07-25T22:17:50.084Z,24.80
2022-07-25T22:20:51.253Z,24.80
2022-07-25T22:23:52.622Z,24.80
2022-07-25T22:26:54.142Z,24.70
2022-07-25T22:29:55.064Z,24.70
2022-07-25T22:32:56.583Z,24.50
2022-07-25T22:35:57.788Z,24.40
2022-07-25T22:38:58.985Z,24.30
2022-07-25T22:42:00.364Z,24.40
2022-07-25T22:45:01.900Z,24.30
2022-07-25T22:48:02.942Z,24.20
2022-07-25T22:51:04.399Z,24.20
2022-07-25T22:54:05.750Z,24.10
2022-07-25T22:57:07.123Z,24.00
2022-07-25T23:00:12.006Z,24.00
2022-07-25T23:03:13.311Z,23.70
2022-07-25T23:06:14.649Z,23.60
2022-07-25T23:09:15.782Z,23.50
2022-07-25T23:12:16.866Z,23.40
2022-07-25T23:15:18.087Z,23.40
2022-07-25T23:18:19.803Z,23.20
2022-07-25T23:21:21.020Z,23.10
2022-07-25T23:24:21.979Z,23.00
2022-07-25T23:27:25.410Z,23.00
2022-07-25T23:30:26.499Z,22.90
2022-07-25T23:33:27.714Z,22.80
2022-07-25T23:36:30.088Z,22.80
2022-07-25T23:39:32.003Z,22.90
2022-07-25T23:42:33.001Z,22.80
2022-07-25T23:45:35.464Z,22.90
2022-07-25T23:48:36.781Z,22.90
2022-07-25T23:51:38.789Z,23.00
2022-07-25T23:54:41.016Z,22.90
2022-07-25T23:57:41.811Z,23.00
